Wednesday, November 22, 2017, 7:59 AM EST
Back to Local

KPVC, Provincetown, Provincetown Municipal Airport

Location: Provincetown, MA, United States Lat: 42.067
Local Time: 7:59 AM EST (12:59 GMT) Lon: -70.217
Time Zone: US/Eastern Elev: 6 ft

Show me the last for .
Show Decoded

2017-11-22 06:56 METAR KPVC 221156Z AUTO 14005KT 10SM OVC019 12/11 A2997 RMK AO2 RAB32E51 SLP148
                 6//// 7//// T01220111 10128 20117 58023 =
2017-11-22 06:10 METAR KPVC 221110Z AUTO 14004KT 10SM BKN027 OVC034 12/11 A2999 RMK AO2 =
2017-11-22 05:56 METAR KPVC 221056Z AUTO 17004KT 10SM BKN030 OVC036 12/11 A3000 RMK AO2 RAB04E50
                 SLP157 P0000 T01220111 =
2017-11-22 04:56 METAR KPVC 220956Z AUTO 18006KT 10SM FEW028 OVC037 13/11 A3002 RMK AO2
                 RAE09B29E47 SLP166 P0001 T01280111 =
2017-11-22 03:56 METAR KPVC 220856Z AUTO 18007KT 9SM -RA BKN033 OVC042 12/11 A3004 RMK AO2 RAB30
                 SLP171 P0000 6//// T01220106 56007 =
2017-11-22 02:56 METAR KPVC 220756Z AUTO 17007KT 10SM OVC047 12/10 A3004 RMK AO2 SLP172 T01220100
                 =
2017-11-22 01:56 METAR KPVC 220656Z AUTO 21008KT 10SM BKN070 12/09 A3004 RMK AO2 SLP173 T01220094
                 =
2017-11-22 00:56 METAR KPVC 220556Z AUTO 22007KT 10SM CLR 12/09 A3006 RMK AO2 SLP178 6////
                 T01170089 10122 20111 50005 =
2017-11-21 23:56 METAR KPVC 220456Z AUTO 22011KT 10SM CLR 12/09 A3007 RMK AO2 SLP180 T01170089
                 401390056 =
2017-11-21 22:56 METAR KPVC 220356Z AUTO 22013KT 10SM CLR 12/08 A3006 RMK AO2 SLP178 T01170083 =
2017-11-21 21:56 METAR KPVC 220256Z AUTO 22018G25KT 10SM CLR 12/08 A3004 RMK AO2 SLP172 6////
                 T01220078 58000 =
2017-11-21 20:56 METAR KPVC 220156Z AUTO 21014KT 10SM CLR 12/07 A3004 RMK AO2 SLP172 T01220067 =
2017-11-21 19:56 METAR KPVC 220056Z AUTO 18009KT 10SM CLR 12/07 A3005 RMK AO2 SLP174 T01170067 =
2017-11-21 18:56 METAR KPVC 212356Z AUTO 20015G20KT 10SM CLR 12/06 A3004 RMK AO2 SLP173 6////
                 T01170061 10133 20117 58005 =
2017-11-21 17:56 METAR KPVC 212256Z AUTO 21016G21KT 10SM CLR 12/07 A3005 RMK AO2 SLP177 T01170067
                 =
2017-11-21 16:56 METAR KPVC 212156Z AUTO 21017G22KT 10SM CLR 12/07 A3005 RMK AO2 SLP175 T01170067
                 =
2017-11-21 15:56 METAR KPVC 212056Z AUTO 22020G26KT 10SM CLR 12/07 A3006 RMK AO2 PK WND
                 22030/2002 SLP178 6//// T01170067 55002 =
2017-11-21 14:56 METAR KPVC 211956Z AUTO 22023G30KT 10SM CLR 13/07 A3005 RMK AO2 PK WND
                 22031/1916 SLP176 T01280067 =
2017-11-21 13:56 METAR KPVC 211856Z AUTO 10SM CLR 13/06 A3005 RMK AO2 SLP174 T01330061 =
2017-11-21 12:56 METAR KPVC 211756Z AUTO 22023G30KT 10SM CLR 13/06 A3006 RMK AO2 SLP179 6////
                 T01330061 10139 20083 56029 =
2017-11-21 11:56 METAR KPVC 211656Z AUTO 10SM CLR 13/06 A3008 RMK AO2 SLP186 T01330056 =
2017-11-21 10:56 METAR KPVC 211556Z AUTO 22019G26KT 10SM CLR 13/05 A3012 RMK AO2 PK WND
                 22026/1552 SLP198 T01330050 =
2017-11-21 09:56 METAR KPVC 211456Z AUTO 22013KT 10SM CLR 12/04 A3015 RMK AO2 SLP209 T01170039 =
2017-11-21 08:56 METAR KPVC 211356Z AUTO 23016G25KT 10SM CLR 10/02 RMK AO2 SLPNO T01000022 $ =

Support USWX by starting your Amazon purchase here.